Time;durP1;ratioP1;P1;durP2;ratioP2;P2;SDS_P1;SDS_P2;PMS_P1;PMS_P2;Temp;Humidity;BMP_temperature;BMP_pressure;BME280_temperature;BME280_humidity;BME280_pressure;Samples;Min_cycle;Max_cycle;Signal;HPM_P1;HPM_P2
2022/03/28 00:00:51;;;;;;;13.55;10.20;;;;;;;11.24;100.00;100264.41;5103231;28;20035;-84
2022/03/28 00:03:16;;;;;;;15.90;9.82;;;;;;;11.45;100.00;100270.09;5099688;28;20031;-85
2022/03/28 00:05:45;;;;;;;12.90;10.23;;;;;;;11.45;100.00;100249.06;5103330;28;20041;-84
2022/03/28 00:08:10;;;;;;;13.15;10.63;;;;;;;11.70;100.00;100273.47;5102100;28;20033;-84
2022/03/28 00:10:37;;;;;;;12.00;9.90;;;;;;;11.61;100.00;100249.00;5087266;28;20028;-84
2022/03/28 00:13:02;;;;;;;12.35;9.98;;;;;;;11.67;100.00;100250.13;5106738;28;20109;-84
2022/03/28 00:15:28;;;;;;;12.45;9.80;;;;;;;11.86;100.00;100268.13;5099773;28;20043;-83
2022/03/28 00:17:54;;;;;;;13.93;10.00;;;;;;;11.88;100.00;100259.22;5087908;28;20063;-83
2022/03/28 00:20:20;;;;;;;11.55;10.07;;;;;;;11.98;100.00;100270.34;5099191;28;20028;-81
2022/03/28 00:22:46;;;;;;;13.55;10.48;;;;;;;12.02;100.00;100263.78;5100066;28;20119;-81
2022/03/28 00:25:12;;;;;;;13.90;10.07;;;;;;;11.93;100.00;100247.22;5098641;28;20033;-80
2022/03/28 00:27:38;;;;;;;13.82;10.23;;;;;;;12.05;100.00;100257.34;5108840;28;20081;-83
2022/03/28 00:30:06;;;;;;;13.27;10.10;;;;;;;12.08;100.00;100257.00;5094283;28;20039;-80
2022/03/28 00:32:32;;;;;;;12.45;10.10;;;;;;;11.89;100.00;100226.66;5093478;28;20081;-82
2022/03/28 00:34:58;;;;;;;12.35;10.27;;;;;;;12.01;100.00;100259.53;5103378;28;20035;-80
2022/03/28 00:37:24;;;;;;;13.00;10.02;;;;;;;11.83;100.00;100236.91;5083799;28;20099;-82
2022/03/28 00:39:49;;;;;;;12.85;10.48;;;;;;;11.73;100.00;100231.03;5103563;28;20020;-83
2022/03/28 00:42:15;;;;;;;13.90;9.95;;;;;;;11.60;100.00;100213.19;5096968;28;20393;-83
2022/03/28 00:44:41;;;;;;;12.10;9.60;;;;;;;11.67;100.00;100222.00;5095462;28;20039;-82
2022/03/28 00:47:07;;;;;;;11.55;9.40;;;;;;;11.71;100.00;100227.75;5100889;28;20034;-83
2022/03/28 00:49:32;;;;;;;12.75;9.73;;;;;;;11.70;100.00;100232.19;5106546;28;20062;-83
2022/03/28 00:51:59;;;;;;;12.43;9.52;;;;;;;11.71;100.00;100235.63;5114560;28;20037;-83
2022/03/28 00:54:24;;;;;;;11.38;9.23;;;;;;;11.47;100.00;100205.84;5100509;28;20027;-83
2022/03/28 00:56:50;;;;;;;11.88;9.43;;;;;;;11.71;100.00;100235.63;5105195;28;20093;-82
2022/03/28 00:59:17;;;;;;;11.65;9.13;;;;;;;11.70;100.00;100234.00;5115833;28;20043;-84
2022/03/28 01:01:45;;;;;;;10.57;9.27;;;;;;;11.67;100.00;100221.19;5116046;28;20032;-83
2022/03/28 01:04:11;;;;;;;13.15;9.82;;;;;;;11.43;100.00;100189.59;5114437;28;20453;-84
2022/03/28 01:06:39;;;;;;;13.40;9.90;;;;;;;11.55;100.00;100216.31;5116634;28;20032;-84
2022/03/28 01:09:05;;;;;;;12.85;10.07;;;;;;;11.62;100.00;100218.28;5104289;28;20040;-83
2022/03/28 01:11:33;;;;;;;13.43;10.40;;;;;;;11.69;100.00;100212.16;5094115;28;20119;-84
2022/03/28 01:13:59;;;;;;;14.85;10.32;;;;;;;11.78;100.00;100220.78;5098033;28;20513;-83
2022/03/28 01:19:16;;;;;;;12.38;10.35;;;;;;;12.04;100.00;100222.34;5115602;28;20038;-82
2022/03/28 01:21:42;;;;;;;12.48;9.98;;;;;;;12.07;100.00;100214.09;5109952;28;20115;-83
2022/03/28 01:24:08;;;;;;;10.60;9.10;;;;;;;12.03;100.00;100193.56;5094960;28;20449;-81
2022/03/28 01:26:34;;;;;;;12.85;9.63;;;;;;;12.12;100.00;100206.47;5097253;28;20136;-82
2022/03/28 01:29:01;;;;;;;11.57;9.80;;;;;;;12.10;100.00;100200.56;5098092;28;20401;-81
2022/03/28 01:31:26;;;;;;;13.10;10.75;;;;;;;12.05;100.00;100192.38;5099053;28;20032;-81
2022/03/28 01:33:52;;;;;;;11.38;9.93;;;;;;;12.04;100.00;100185.50;5103096;28;20037;-81
2022/03/28 01:36:25;;;;;;;13.27;10.65;;;;;;;12.05;100.00;100189.75;5076282;28;20047;-81
2022/03/28 01:38:51;;;;;;;14.02;9.80;;;;;;;12.11;100.00;100201.41;5093479;28;20028;-81
2022/03/28 01:41:21;;;;;;;13.27;9.07;;;;;;;12.06;100.00;100199.28;5097571;28;20121;-82
2022/03/28 01:43:49;;;;;;;14.30;10.52;;;;;;;11.95;100.00;100189.97;5107824;28;20031;-81
2022/03/28 01:46:16;;;;;;;12.35;10.15;;;;;;;11.99;100.00;100203.59;5107775;28;20054;-81
2022/03/28 01:48:41;;;;;;;15.60;10.90;;;;;;;11.92;100.00;100186.84;5109533;28;20413;-82
2022/03/28 01:51:08;;;;;;;11.75;10.15;;;;;;;11.90;100.00;100179.16;5086517;28;20040;-81
2022/03/28 01:53:34;;;;;;;14.45;10.82;;;;;;;11.96;100.00;100190.75;5108132;28;20110;-81
2022/03/28 01:55:59;;;;;;;13.23;11.00;;;;;;;11.84;100.00;100172.78;5092878;28;20047;-82
2022/03/28 01:58:26;;;;;;;12.07;9.80;;;;;;;11.89;100.00;100184.56;5089476;28;20034;-81
2022/03/28 02:00:51;;;;;;;12.70;10.25;;;;;;;11.77;100.00;100171.81;5107631;28;20027;-82
2022/03/28 02:03:17;;;;;;;14.13;9.88;;;;;;;11.73;100.00;100167.09;5118487;28;20050;-81
2022/03/28 02:05:42;;;;;;;14.85;10.38;;;;;;;11.70;100.00;100169.09;5106325;28;20388;-81
2022/03/28 02:08:09;;;;;;;13.20;10.20;;;;;;;11.75;100.00;100168.53;5106530;28;20484;-82
2022/03/28 02:10:35;;;;;;;14.48;10.73;;;;;;;11.70;100.00;100160.34;5102083;28;20115;-81
2022/03/28 02:13:02;;;;;;;13.00;10.10;;;;;;;11.71;100.00;100156.72;5089270;28;20038;-81
2022/03/28 02:15:27;;;;;;;15.13;10.90;;;;;;;11.66;100.00;100157.25;5109815;28;20114;-82
2022/03/28 02:17:53;;;;;;;13.15;10.52;;;;;;;11.67;100.00;100147.56;5097105;28;20377;-81
2022/03/28 02:20:19;;;;;;;13.80;10.43;;;;;;;11.70;100.00;100152.47;5112557;28;20035;-82
2022/03/28 02:22:46;;;;;;;13.48;10.38;;;;;;;11.60;100.00;100131.66;5118270;27;20088;-82
2022/03/28 02:25:15;;;;;;;15.38;11.30;;;;;;;11.69;100.00;100137.69;5092238;28;20524;-80
2022/03/28 02:27:41;;;;;;;14.98;11.00;;;;;;;11.62;100.00;100124.41;5104048;28;20024;-81
2022/03/28 02:30:09;;;;;;;16.70;12.00;;;;;;;11.67;100.00;100135.22;5099681;28;20370;-81
2022/03/28 02:32:35;;;;;;;15.80;11.50;;;;;;;11.67;100.00;100137.03;5109157;28;20028;-81
2022/03/28 02:35:02;;;;;;;14.82;11.18;;;;;;;11.67;100.00;100132.59;5113305;28;20134;-82
2022/03/28 02:37:28;;;;;;;15.45;11.65;;;;;;;11.61;100.00;100124.59;5108496;28;20032;-81
2022/03/28 02:39:54;;;;;;;16.50;11.52;;;;;;;11.50;100.00;100105.59;5109415;28;20050;-82
2022/03/28 02:42:23;;;;;;;16.30;11.57;;;;;;;11.43;100.00;100108.09;5083272;28;20052;-80
2022/03/28 02:44:50;;;;;;;19.30;12.45;;;;;;;11.45;100.00;100117.59;5097400;28;20035;-80
2022/03/28 02:47:20;;;;;;;16.33;12.10;;;;;;;11.39;100.00;100119.94;5103363;28;20065;-80
2022/03/28 02:49:48;;;;;;;16.38;11.95;;;;;;;11.21;100.00;100101.81;5106045;28;20066;-80
2022/03/28 02:52:14;;;;;;;16.73;12.65;;;;;;;11.26;100.00;100110.00;5101117;28;20036;-81
2022/03/28 02:54:40;;;;;;;17.25;11.50;;;;;;;11.15;100.00;100089.34;5108387;28;20020;-81
2022/03/28 02:57:06;;;;;;;18.63;12.48;;;;;;;11.20;100.00;100092.31;5106057;28;20501;-80
2022/03/28 02:59:32;;;;;;;20.98;13.98;;;;;;;11.05;100.00;100086.94;5102425;28;20093;-80
2022/03/28 03:01:57;;;;;;;18.98;14.13;;;;;;;10.98;100.00;100093.88;5113768;28;20452;-81
2022/03/28 03:04:23;;;;;;;17.95;13.65;;;;;;;10.97;100.00;100090.41;5101637;28;20110;-80
2022/03/28 03:06:49;;;;;;;20.65;14.90;;;;;;;10.95;100.00;100088.97;5109093;28;20451;-80
2022/03/28 03:09:15;;;;;;;23.10;15.43;;;;;;;10.99;100.00;100087.63;5107522;28;20024;-80
2022/03/28 03:11:40;;;;;;;20.67;14.38;;;;;;;10.99;100.00;100077.94;5104498;28;20085;-80
2022/03/28 03:14:06;;;;;;;18.65;14.18;;;;;;;11.07;100.00;100073.63;5108167;28;20024;-81
2022/03/28 03:16:35;;;;;;;20.65;15.00;;;;;;;11.10;100.00;100068.03;5102981;28;20500;-81
2022/03/28 03:19:03;;;;;;;21.88;15.85;;;;;;;11.10;100.00;100070.66;5089429;28;20031;-81
2022/03/28 03:21:29;;;;;;;19.33;15.10;;;;;;;11.07;100.00;100057.88;5083799;28;20027;-80
2022/03/28 03:23:54;;;;;;;20.92;15.65;;;;;;;11.02;100.00;100055.75;5109471;28;20185;-80
2022/03/28 03:26:20;;;;;;;23.25;15.30;;;;;;;11.03;100.00;100057.41;5103183;28;20020;-80
2022/03/28 03:28:46;;;;;;;22.40;15.70;;;;;;;11.09;100.00;100061.94;5100910;28;20480;-81
2022/03/28 03:31:11;;;;;;;17.98;14.40;;;;;;;11.11;100.00;100067.03;5109933;28;20030;-80
2022/03/28 03:33:37;;;;;;;24.02;15.32;;;;;;;11.09;100.00;100061.94;5106055;28;20035;-81
2022/03/28 03:36:03;;;;;;;20.85;15.63;;;;;;;11.08;100.00;100049.00;5097034;28;20524;-81
2022/03/28 03:38:31;;;;;;;21.88;15.45;;;;;;;10.91;100.00;100030.69;5101683;28;20118;-81
2022/03/28 03:40:57;;;;;;;22.58;15.25;;;;;;;11.03;100.00;100035.56;5104487;28;20063;-80
2022/03/28 03:43:25;;;;;;;22.17;15.40;;;;;;;10.89;100.00;100024.78;5106678;28;20058;-83
2022/03/28 03:45:51;;;;;;;19.58;15.05;;;;;;;11.04;100.00;100050.34;5109176;28;20028;-82
2022/03/28 03:48:18;;;;;;;21.65;15.10;;;;;;;10.99;100.00;100040.34;5109337;28;20043;-83
2022/03/28 03:50:44;;;;;;;22.17;14.27;;;;;;;11.05;100.00;100038.84;5096711;28;20087;-83
2022/03/28 03:53:10;;;;;;;20.08;14.40;;;;;;;11.12;100.00;100034.53;5098397;28;20036;-83
2022/03/28 03:55:37;;;;;;;23.77;14.40;;;;;;;11.23;100.00;100042.03;5109008;28;20040;-83
2022/03/28 03:58:03;;;;;;;18.42;14.15;;;;;;;11.29;100.00;100029.97;5099501;28;20042;-81
2022/03/28 04:00:30;;;;;;;21.08;14.07;;;;;;;11.41;100.00;100025.16;5103280;28;20055;-82
2022/03/28 04:02:55;;;;;;;18.92;13.90;;;;;;;11.50;100.00;100028.53;5098250;28;20032;-81
2022/03/28 04:05:21;;;;;;;18.60;13.95;;;;;;;11.50;100.00;100020.66;5102892;28;20027;-82
2022/03/28 04:07:48;;;;;;;19.33;14.20;;;;;;;11.54;100.00;100021.94;5108671;28;20449;-81
2022/03/28 04:10:17;;;;;;;20.17;14.27;;;;;;;11.57;100.00;100025.00;5099630;28;20036;-82
2022/03/28 04:12:46;;;;;;;19.90;14.48;;;;;;;11.68;100.00;100031.66;5102574;28;20070;-83
2022/03/28 04:15:16;;;;;;;17.98;13.50;;;;;;;11.63;100.00;100015.59;5105515;28;20032;-81
2022/03/28 04:17:44;;;;;;;17.60;13.93;;;;;;;11.75;100.00;100029.13;5094697;28;20036;-82
2022/03/28 04:20:12;;;;;;;18.35;12.93;;;;;;;11.77;100.00;100027.13;5101879;28;20028;-80
2022/03/28 04:22:39;;;;;;;18.67;13.18;;;;;;;11.67;100.00;99998.47;5079320;28;20046;-82
2022/03/28 04:25:05;;;;;;;20.38;14.30;;;;;;;11.75;100.00;100008.09;5106400;28;20488;-83
2022/03/28 04:27:31;;;;;;;17.42;13.20;;;;;;;11.80;100.00;100021.53;5107846;28;20385;-81
2022/03/28 04:29:57;;;;;;;16.38;12.70;;;;;;;11.83;100.00;100009.84;5096789;28;20039;-82
2022/03/28 04:32:22;;;;;;;17.63;13.85;;;;;;;11.73;100.00;99996.13;5110515;28;20031;-82
2022/03/28 04:34:49;;;;;;;18.77;14.82;;;;;;;11.84;100.00;100012.31;5112661;28;20047;-81
2022/03/28 04:37:14;;;;;;;20.95;14.65;;;;;;;11.76;100.00;99999.19;5094527;28;20055;-81
2022/03/28 04:39:40;;;;;;;20.65;14.48;;;;;;;11.77;100.00;99992.16;5098898;28;20100;-82
2022/03/28 04:42:06;;;;;;;18.17;15.35;;;;;;;11.72;100.00;99990.03;5113058;28;20032;-82
2022/03/28 04:44:32;;;;;;;20.90;16.05;;;;;;;11.73;100.00;100004.03;5098937;28;20034;-82
2022/03/28 04:46:58;;;;;;;21.98;15.80;;;;;;;11.72;100.00;99995.31;5105974;28;20390;-82
2022/03/28 04:49:25;;;;;;;22.70;16.33;;;;;;;11.73;100.00;99996.94;5105962;28;20546;-81
2022/03/28 04:51:51;;;;;;;20.63;15.85;;;;;;;11.64;100.00;99976.97;5109652;28;20027;-82
2022/03/28 04:54:16;;;;;;;19.80;15.60;;;;;;;11.74;100.00;99993.31;5111039;28;20492;-81
2022/03/28 04:56:43;;;;;;;20.83;15.93;;;;;;;11.66;100.00;99972.34;5099280;28;20024;-82
2022/03/28 04:59:11;;;;;;;20.23;15.95;;;;;;;11.79;100.00;99996.25;5101288;28;20405;-81
2022/03/28 05:01:37;;;;;;;21.83;15.63;;;;;;;11.79;100.00;99983.09;5109312;28;20032;-81
2022/03/28 05:04:02;;;;;;;22.63;16.50;;;;;;;11.71;100.00;99985.78;5106480;28;20038;-81
2022/03/28 05:06:28;;;;;;;21.33;17.35;;;;;;;11.65;100.00;99968.09;5101143;28;20118;-81
2022/03/28 05:08:53;;;;;;;25.20;18.20;;;;;;;11.57;100.00;99959.25;5107635;28;20058;-81
2022/03/28 05:11:22;;;;;;;22.58;18.00;;;;;;;11.61;100.00;99974.72;5100804;28;20024;-81
2022/03/28 05:13:49;;;;;;;25.40;19.65;;;;;;;11.69;100.00;99966.72;5113479;28;20031;-81
2022/03/28 05:16:16;;;;;;;26.00;18.73;;;;;;;11.70;100.00;99969.19;5111275;28;20465;-81
2022/03/28 05:18:42;;;;;;;23.05;18.65;;;;;;;11.71;100.00;99956.84;5104969;28;20047;-81
2022/03/28 05:21:09;;;;;;;22.58;17.90;;;;;;;11.82;100.00;99963.47;5102878;28;20035;-81
2022/03/28 05:23:35;;;;;;;23.63;18.55;;;;;;;11.78;100.00;99955.13;5085763;28;20031;-80
2022/03/28 05:26:04;;;;;;;24.35;18.92;;;;;;;11.86;100.00;99957.69;5108280;28;20024;-80
2022/03/28 05:28:30;;;;;;;24.05;17.95;;;;;;;11.95;100.00;99954.97;5102775;28;20028;-80
2022/03/28 05:30:58;;;;;;;23.70;19.25;;;;;;;11.94;100.00;99958.59;5103854;28;20477;-83
2022/03/28 05:33:24;;;;;;;28.15;19.63;;;;;;;11.85;100.00;99945.53;5115506;28;20066;-81
2022/03/28 05:35:51;;;;;;;23.33;19.25;;;;;;;11.84;100.00;99951.78;5086128;28;20492;-81
2022/03/28 05:38:20;;;;;;;26.48;20.27;;;;;;;11.94;100.00;99953.34;5115668;28;20028;-81
2022/03/28 05:40:46;;;;;;;23.48;18.05;;;;;;;11.98;100.00;99944.06;5112964;28;20495;-81
2022/03/28 05:43:12;;;;;;;25.63;19.70;;;;;;;11.92;100.00;99944.81;5088901;28;20024;-81
2022/03/28 05:45:38;;;;;;;24.95;18.88;;;;;;;11.84;100.00;99932.53;5098813;28;20115;-81
2022/03/28 05:48:07;;;;;;;22.55;17.58;;;;;;;11.85;100.00;99940.28;5108906;28;20032;-81
2022/03/28 05:50:32;;;;;;;26.00;19.30;;;;;;;11.77;100.00;99916.66;5113283;28;20044;-82
2022/03/28 05:52:58;;;;;;;27.92;20.27;;;;;;;11.83;100.00;99941.44;5107685;28;20080;-82
2022/03/28 05:55:23;;;;;;;24.10;18.48;;;;;;;11.86;100.00;99946.34;5112140;28;20039;-82
2022/03/28 05:57:49;;;;;;;25.38;18.55;;;;;;;11.86;100.00;99934.00;5112745;28;20392;-83
2022/03/28 06:00:15;;;;;;;25.10;19.67;;;;;;;11.97;100.00;99938.00;5108212;28;20050;-82
2022/03/28 06:02:42;;;;;;;22.45;17.80;;;;;;;12.06;100.00;99936.13;5102733;28;20028;-82
2022/03/28 06:05:08;;;;;;;20.90;16.55;;;;;;;11.99;100.00;99936.00;5115184;28;20495;-82
2022/03/28 06:07:34;;;;;;;20.10;15.57;;;;;;;12.07;100.00;99936.94;5088895;28;20028;-82
2022/03/28 06:10:00;;;;;;;19.92;15.90;;;;;;;12.24;100.00;99945.47;5113260;28;20499;-82
2022/03/28 06:12:27;;;;;;;23.17;18.05;;;;;;;12.21;100.00;99949.28;5104195;28;20073;-82
2022/03/28 06:14:52;;;;;;;23.63;17.10;;;;;;;12.25;100.00;99944.47;5099096;28;20178;-82
2022/03/28 06:17:23;;;;;;;20.45;16.38;;;;;;;12.28;100.00;99941.47;5096629;28;20028;-80
2022/03/28 06:19:50;;;;;;;22.15;16.35;;;;;;;12.43;100.00;99936.19;5091116;28;20024;-81
2022/03/28 06:22:17;;;;;;;23.33;16.98;;;;;;;12.51;100.00;99943.16;5113702;28;20039;-82
2022/03/28 06:24:43;;;;;;;22.42;17.38;;;;;;;12.47;100.00;99920.84;5101537;28;20043;-81
2022/03/28 06:27:09;;;;;;;23.00;15.50;;;;;;;12.56;100.00;99933.72;5084380;28;20035;-82
2022/03/28 06:29:35;;;;;;;22.92;17.13;;;;;;;12.42;100.00;99903.78;5114359;28;20039;-80
2022/03/28 06:32:01;;;;;;;26.05;20.00;;;;;;;12.41;100.00;99902.16;5108399;28;20032;-82
2022/03/28 06:34:26;;;;;;;27.00;20.20;;;;;;;12.49;100.00;99918.81;5112086;28;20016;-81
2022/03/28 06:36:52;;;;;;;25.25;19.20;;;;;;;12.56;100.00;99938.16;5100624;28;20023;-80
2022/03/28 06:39:17;;;;;;;26.80;19.38;;;;;;;12.50;100.00;99925.72;5087417;28;20028;-83
2022/03/28 06:41:43;;;;;;;21.55;18.33;;;;;;;12.57;100.00;99931.88;5103399;28;20122;-81
2022/03/28 06:44:11;;;;;;;24.48;18.40;;;;;;;12.62;100.00;99921.63;5102879;28;20024;-82
2022/03/28 06:46:42;;;;;;;28.05;18.60;;;;;;;12.76;100.00;99932.28;5107202;28;20485;-82
2022/03/28 06:49:08;;;;;;;25.40;18.05;;;;;;;12.79;100.00;99931.94;5104167;28;20484;-82
2022/03/28 06:51:35;;;;;;;25.17;18.52;;;;;;;12.88;100.00;99938.69;5107125;28;20027;-84
2022/03/28 06:54:06;;;;;;;31.40;22.13;;;;;;;12.78;100.00;99923.19;5103253;28;20032;-84
2022/03/28 06:56:33;;;;;;;32.45;22.95;;;;;;;12.84;100.00;99917.16;5108875;28;20024;-83
2022/03/28 06:58:58;;;;;;;38.42;24.70;;;;;;;12.92;100.00;99916.22;5083349;28;20193;-82
2022/03/28 07:01:24;;;;;;;35.00;22.48;;;;;;;13.04;100.00;99926.28;5105214;28;20397;-80
2022/03/28 07:03:49;;;;;;;36.28;23.00;;;;;;;13.18;100.00;99925.41;5097036;28;20024;-86
2022/03/28 07:06:15;;;;;;;36.03;23.85;;;;;;;13.19;100.00;99908.59;5116365;28;20496;-86
2022/03/28 07:08:40;;;;;;;38.42;24.05;;;;;;;13.31;100.00;99919.44;5106420;28;20104;-87
2022/03/28 07:11:06;;;;;;;35.80;24.48;;;;;;;13.36;100.00;99913.56;5107580;28;20055;-82
2022/03/28 07:13:32;;;;;;;37.13;24.23;;;;;;;13.43;100.00;99903.91;5111523;28;20389;-83
2022/03/28 07:15:57;;;;;;;36.88;24.20;;;;;;;13.57;100.00;99904.81;5114366;28;20032;-85
2022/03/28 07:18:23;;;;;;;45.42;29.55;;;;;;;13.55;100.00;99905.00;5102287;28;20049;-83
2022/03/28 07:20:50;;;;;;;50.65;31.52;;;;;;;13.55;100.00;99906.84;5102467;28;20031;-83
2022/03/28 07:23:17;;;;;;;48.25;31.10;;;;;;;13.62;100.00;99904.25;5100843;28;20038;-83
2022/03/28 07:25:43;;;;;;;51.45;31.30;;;;;;;13.82;100.00;99914.91;5099013;28;20581;-83
2022/03/28 07:28:12;;;;;;;54.63;32.85;;;;;;;13.95;100.00;99912.34;5104261;28;20036;-82
2022/03/28 07:30:39;;;;;;;52.92;34.42;;;;;;;14.00;100.00;99909.16;5105008;28;20031;-84
2022/03/28 07:33:06;;;;;;;55.88;34.58;;;;;;;14.11;100.00;99913.84;5105732;28;20031;-83
2022/03/28 07:35:35;;;;;;;48.50;30.27;;;;;;;14.04;100.00;99899.81;5095319;28;20076;-84
2022/03/28 07:38:08;;;;;;;43.13;27.73;;;;;;;14.15;100.00;99911.63;5106469;28;20028;-83
2022/03/28 07:40:40;;;;;;;53.30;32.63;;;;;;;14.08;100.00;99908.97;5104093;28;20024;-84
2022/03/28 07:43:07;;;;;;;48.07;30.43;;;;;;;14.20;100.00;99911.06;5109615;28;20027;-84
2022/03/28 07:45:34;;;;;;;51.70;32.25;;;;;;;14.32;100.00;99890.97;5104665;28;20279;-84
2022/03/28 07:48:00;;;;;;;48.35;32.15;;;;;;;14.45;100.00;99898.16;5111945;28;20038;-82
2022/03/28 07:50:26;;;;;;;46.63;30.48;;;;;;;14.31;100.00;99886.72;5107668;28;20036;-82
2022/03/28 07:52:52;;;;;;;51.55;32.38;;;;;;;14.46;100.00;99897.13;5108998;28;20059;-82
2022/03/28 07:55:20;;;;;;;45.70;30.52;;;;;;;14.48;100.00;99895.09;5118222;28;20055;-83
2022/03/28 07:57:46;;;;;;;48.80;29.63;;;;;;;14.49;100.00;99883.53;5114109;28;20028;-83
2022/03/28 08:00:15;;;;;;;51.55;32.22;;;;;;;14.69;100.00;99875.63;5110743;28;20587;-83
2022/03/28 08:02:41;;;;;;;47.80;30.48;;;;;;;15.02;100.00;99879.34;5108919;28;20122;-83
2022/03/28 08:05:08;;;;;;;47.70;30.08;;;;;;;15.16;99.61;99890.75;5104368;28;20020;-82
2022/03/28 08:07:34;;;;;;;50.58;31.35;;;;;;;14.69;99.90;99885.41;5103217;28;20243;-82
2022/03/28 08:10:01;;;;;;;45.25;29.40;;;;;;;14.94;99.65;99883.03;5103578;28;20035;-82
2022/03/28 08:12:28;;;;;;;47.38;30.02;;;;;;;14.79;99.84;99885.03;5102458;28;20143;-83
2022/03/28 08:14:54;;;;;;;47.95;29.55;;;;;;;14.80;100.00;99876.91;5106072;28;20039;-82
2022/03/28 08:17:20;;;;;;;42.88;28.23;;;;;;;14.85;98.10;99871.84;5100228;28;20027;-82
2022/03/28 08:19:46;;;;;;;45.70;28.60;;;;;;;14.81;98.39;99875.88;5107982;28;20028;-83
2022/03/28 08:22:13;;;;;;;46.47;29.83;;;;;;;14.74;98.99;99883.00;5104894;28;20027;-82
2022/03/28 08:24:38;;;;;;;46.65;28.17;;;;;;;14.71;98.75;99870.19;5101956;28;20036;-82
2022/03/28 08:27:07;;;;;;;46.50;28.98;;;;;;;14.68;98.95;99855.50;5082620;28;20039;-82
2022/03/28 08:29:34;;;;;;;42.60;28.60;;;;;;;14.77;98.91;99858.00;5101354;28;20073;-83
2022/03/28 08:32:00;;;;;;;45.83;29.90;;;;;;;14.68;99.13;99862.63;5108226;28;20095;-83
2022/03/28 08:34:26;;;;;;;46.42;29.23;;;;;;;14.55;99.02;99868.72;5104839;28;20020;-82
2022/03/28 08:36:52;;;;;;;41.38;27.30;;;;;;;14.36;99.26;99855.25;5108444;28;20054;-82
2022/03/28 08:39:17;;;;;;;43.65;28.70;;;;;;;14.24;99.87;99862.91;5105942;28;20036;-82
2022/03/28 08:41:47;;;;;;;45.75;29.02;;;;;;;14.06;100.00;99866.13;5106248;28;20060;-82
2022/03/28 08:44:13;;;;;;;45.72;28.63;;;;;;;13.77;100.00;99856.63;5105505;28;20115;-82
2022/03/28 08:46:43;;;;;;;47.25;30.58;;;;;;;13.80;100.00;99864.16;5106572;28;20047;-83
2022/03/28 08:49:09;;;;;;;47.15;29.50;;;;;;;13.62;100.00;99859.41;5094834;28;20088;-81
2022/03/28 08:51:34;;;;;;;44.50;28.27;;;;;;;13.64;100.00;99867.94;5104627;28;20106;-82
2022/03/28 08:54:00;;;;;;;45.53;29.75;;;;;;;13.65;100.00;99854.53;5108147;28;20465;-82
2022/03/28 08:56:26;;;;;;;50.03;31.15;;;;;;;13.53;100.00;99859.53;5110824;28;20031;-82
2022/03/28 08:58:52;;;;;;;49.90;32.35;;;;;;;13.46;100.00;99858.69;5103979;28;20024;-83
2022/03/28 09:01:20;;;;;;;50.85;31.52;;;;;;;13.54;100.00;99858.53;5101987;28;20031;-82
2022/03/28 09:03:47;;;;;;;46.80;29.70;;;;;;;13.57;100.00;99860.81;5104676;28;20023;-82
2022/03/28 09:06:36;;;;;;;46.50;29.55;;;;;;;13.58;100.00;99858.97;5106433;28;20035;-82
2022/03/28 09:09:29;;;;;;;46.17;29.40;;;;;;;13.51;100.00;99861.56;5096951;28;20133;-82
2022/03/28 09:11:57;;;;;;;48.53;28.50;;;;;;;13.45;100.00;99845.69;5099776;28;20210;-83
2022/03/28 09:14:37;;;;;;;48.33;29.73;;;;;;;13.53;100.00;99835.81;5108752;28;20496;-82
2022/03/28 09:17:15;;;;;;;47.22;28.33;;;;;;;13.60;100.00;99830.56;5083793;28;20028;-81
2022/03/28 09:19:55;;;;;;;46.75;30.15;;;;;;;13.74;99.38;99852.56;5097612;28;20031;-82
2022/03/28 09:22:30;;;;;;;46.83;28.65;;;;;;;13.92;99.39;99841.50;5107854;28;20032;-82
2022/03/28 09:25:01;;;;;;;48.28;29.05;;;;;;;14.08;99.37;99839.53;5101373;28;20039;-83
2022/03/28 09:27:30;;;;;;;44.88;28.70;;;;;;;14.22;98.64;99827.19;5104933;28;20027;-81
2022/03/28 09:30:15;;;;;;;45.70;28.02;;;;;;;14.36;97.86;99834.13;5105883;28;20049;-82
2022/03/28 09:32:47;;;;;;;43.55;27.90;;;;;;;14.48;98.59;99842.28;5107451;28;20478;-82
2022/03/28 09:35:19;;;;;;;45.17;29.17;;;;;;;14.63;97.83;99828.88;5108706;28;20065;-81
2022/03/28 09:38:02;;;;;;;41.83;26.92;;;;;;;14.76;97.85;99824.66;5106485;28;20035;-83
2022/03/28 09:40:37;;;;;;;40.08;26.42;;;;;;;14.87;99.42;99824.03;5101321;28;20040;-82
2022/03/28 09:43:19;;;;;;;49.65;30.23;;;;;;;14.96;97.28;99832.59;5098413;28;20032;-81
2022/03/28 09:45:50;;;;;;;47.33;27.70;;;;;;;15.05;97.17;99820.81;5103563;28;20108;-83
2022/03/28 09:48:19;;;;;;;51.20;30.83;;;;;;;14.98;96.10;99809.41;5099884;28;20114;-83
2022/03/28 09:50:58;;;;;;;47.00;30.33;;;;;;;15.16;95.93;99811.44;5101774;28;20051;-82
2022/03/28 09:53:27;;;;;;;47.15;28.88;;;;;;;15.32;96.00;99809.34;5101736;28;20047;-83
2022/03/28 09:56:07;;;;;;;40.28;26.83;;;;;;;15.60;95.83;99795.03;5098874;28;20073;-83
2022/03/28 09:58:49;;;;;;;47.55;29.80;;;;;;;15.59;95.38;99804.00;5105698;28;20038;-83
2022/03/28 10:01:24;;;;;;;47.58;32.17;;;;;;;15.27;95.70;99791.47;5105145;28;20032;-83
2022/03/28 10:03:55;;;;;;;46.38;30.13;;;;;;;15.87;93.30;99790.47;5103779;28;20119;-83
2022/03/28 10:06:21;;;;;;;47.10;31.00;;;;;;;15.80;93.71;99797.59;5116019;28;20070;-83
2022/03/28 10:08:48;;;;;;;49.17;31.38;;;;;;;16.40;92.23;99781.41;5101824;28;20031;-82
2022/03/28 10:11:14;;;;;;;47.92;32.50;;;;;;;16.65;91.33;99790.44;5107439;28;20040;-83
2022/03/28 10:13:40;;;;;;;43.08;28.83;;;;;;;17.04;91.75;99777.88;5105963;28;20620;-82
2022/03/28 10:16:07;;;;;;;42.53;28.35;;;;;;;17.35;91.02;99770.00;5101566;28;20119;-83
2022/03/28 10:18:35;;;;;;;45.95;30.65;;;;;;;17.81;90.52;99775.81;5105364;28;20043;-81
2022/03/28 10:21:05;;;;;;;47.38;29.40;;;;;;;18.36;89.30;99768.72;5104243;28;20036;-82
2022/03/28 10:23:46;;;;;;;41.95;29.45;;;;;;;18.81;87.54;99772.69;5099461;28;20040;-81
2022/03/28 10:26:13;;;;;;;40.95;29.02;;;;;;;18.63;86.82;99761.13;5096662;28;20073;-82
2022/03/28 10:28:39;;;;;;;45.70;31.40;;;;;;;18.11;86.43;99765.22;5111489;28;20038;-81
2022/03/28 10:31:22;;;;;;;43.63;29.95;;;;;;;18.46;86.40;99762.84;5106300;28;20076;-81
2022/03/28 10:33:51;;;;;;;41.40;30.33;;;;;;;17.94;84.48;99746.41;5113138;28;20031;-81
2022/03/28 10:36:41;;;;;;;48.13;33.80;;;;;;;18.44;83.91;99754.28;5117691;28;20039;-81
2022/03/28 10:39:43;;;;;;;37.95;30.15;;;;;;;19.16;83.19;99747.16;5111270;28;20485;-81
2022/03/28 10:42:23;;;;;;;42.25;29.58;;;;;;;19.44;81.50;99741.06;5107258;28;20050;-82
2022/03/28 10:45:02;;;;;;;33.40;26.90;;;;;;;19.86;82.04;99745.31;5102404;28;20040;-82
2022/03/28 10:47:55;;;;;;;36.78;26.95;;;;;;;20.04;79.67;99735.53;5091373;28;20473;-81
2022/03/28 10:50:24;;;;;;;39.08;29.50;;;;;;;20.27;79.68;99739.94;5098132;28;20062;-81
2022/03/28 10:53:37;;;;;;;33.38;27.92;;;;;;;20.47;78.06;99735.97;5113228;28;20532;-82
2022/03/28 10:56:13;;;;;;;42.90;29.05;;;;;;;20.09;78.02;99722.28;5100888;28;20474;-81
2022/03/28 10:59:07;;;;;;;37.78;29.77;;;;;;;19.92;78.05;99724.94;5084492;28;20470;-82
2022/03/28 11:01:35;;;;;;;36.53;29.40;;;;;;;19.88;79.14;99726.44;5102093;28;20043;-81
2022/03/28 11:04:15;;;;;;;35.10;27.35;;;;;;;19.96;77.45;99724.25;5099827;28;20470;-81
2022/03/28 11:07:04;;;;;;;37.00;28.70;;;;;;;20.01;77.01;99723.50;5109532;28;20043;-83
2022/03/28 11:09:51;;;;;;;36.85;29.83;;;;;;;20.02;77.43;99732.31;5097732;28;20036;-82
2022/03/28 11:12:32;;;;;;;35.50;28.80;;;;;;;20.17;75.70;99713.09;5081444;28;20058;-81
2022/03/28 11:15:15;;;;;;;36.85;30.45;;;;;;;20.35;74.30;99712.06;5104817;28;20027;-82
2022/03/28 11:17:58;;;;;;;38.08;30.20;;;;;;;20.75;74.93;99713.72;5079389;28;20393;-82